Time;durP1;ratioP1;P1;durP2;ratioP2;P2;SDS_P1;SDS_P2;PMS_P1;PMS_P2;Temp;Humidity;BMP_temperature;BMP_pressure;BME280_temperature;BME280_humidity;BME280_pressure;Samples;Min_cycle;Max_cycle;Signal;HPM_P1;HPM_P2
2021/03/30 00:00:49;;;;;;;12.15;4.63;;;;;;;3.07;44.54;101481.28;5037856;28;20026;-57
2021/03/30 00:03:14;;;;;;;8.43;3.80;;;;;;;3.20;46.15;101489.44;5036916;28;20097;-56
2021/03/30 00:05:41;;;;;;;7.97;4.00;;;;;;;3.25;45.52;101486.25;5019412;28;20036;-55
2021/03/30 00:08:07;;;;;;;7.45;4.15;;;;;;;3.18;45.17;101491.97;5034556;28;20033;-55
2021/03/30 00:10:39;;;;;;;7.85;3.75;;;;;;;2.80;44.86;101419.69;5040112;28;20026;-55
2021/03/30 00:13:05;;;;;;;7.30;3.85;;;;;;;3.19;44.68;101488.59;5038062;28;20030;-56
2021/03/30 00:15:31;;;;;;;7.88;4.55;;;;;;;3.22;44.73;101490.38;5028803;28;20033;-55
2021/03/30 00:17:57;;;;;;;6.82;4.28;;;;;;;3.12;44.36;101484.03;5026297;28;20042;-55
2021/03/30 00:20:23;;;;;;;8.48;3.97;;;;;;;3.23;43.74;101482.75;5026498;28;20084;-56
2021/03/30 00:22:49;;;;;;;8.48;4.03;;;;;;;3.11;44.70;101484.84;5034137;28;20034;-56
2021/03/30 00:25:15;;;;;;;6.70;3.92;;;;;;;3.13;43.28;101488.34;5034419;28;20095;-56
2021/03/30 00:27:41;;;;;;;13.23;4.22;;;;;;;3.04;43.92;101475.19;5027009;28;20046;-56
2021/03/30 00:30:10;;;;;;;5.47;3.45;;;;;;;2.96;42.95;101482.56;5025866;28;20054;-56
2021/03/30 00:32:36;;;;;;;9.48;4.20;;;;;;;3.02;43.18;101476.81;5026203;28;20081;-56
2021/03/30 00:35:04;;;;;;;8.07;3.63;;;;;;;2.85;42.89;101482.16;5041856;28;20034;-56
2021/03/30 00:37:30;;;;;;;10.95;4.40;;;;;;;2.93;43.06;101467.97;5033792;28;20044;-55
2021/03/30 00:39:56;;;;;;;7.53;3.58;;;;;;;2.85;43.29;101477.03;5041594;28;20250;-55
2021/03/30 00:42:24;;;;;;;7.28;3.83;;;;;;;3.02;43.26;101476.81;5026182;28;20223;-56
2021/03/30 00:44:51;;;;;;;6.63;3.67;;;;;;;3.10;43.51;101478.84;5033942;28;20368;-57
2021/03/30 00:47:19;;;;;;;18.85;3.80;;;;;;;2.99;43.06;101482.69;5025977;28;20195;-57
2021/03/30 00:49:48;;;;;;;7.18;3.42;;;;;;;2.68;42.59;101427.78;5027495;28;20026;-57
2021/03/30 00:52:15;;;;;;;8.35;3.35;;;;;;;3.08;42.78;101470.25;5039942;28;20026;-56
2021/03/30 00:54:41;;;;;;;10.48;3.60;;;;;;;2.95;43.36;101468.03;5033605;28;20127;-56
2021/03/30 00:57:07;;;;;;;9.15;3.35;;;;;;;3.07;43.08;101480.44;5028133;28;20100;-57
2021/03/30 00:59:33;;;;;;;9.73;3.30;;;;;;;2.95;42.95;101473.16;5043777;28;20048;-56
2021/03/30 01:02:00;;;;;;;8.23;3.88;;;;;;;2.94;42.55;101479.94;5025904;28;20029;-56
2021/03/30 01:04:25;;;;;;;6.55;3.40;;;;;;;2.89;43.03;101478.03;5044915;28;20217;-56
2021/03/30 01:06:52;;;;;;;4.70;3.45;;;;;;;2.91;43.17;101467.03;5036756;28;20033;-58
2021/03/30 01:09:38;;;;;;;11.93;4.32;;;;;;;2.37;42.97;101410.34;5043676;28;20044;-56
2021/03/30 01:12:27;;;;;;;7.38;3.75;;;;;;;2.73;42.94;101476.56;5044867;28;20218;-56
2021/03/30 01:15:43;;;;;;;4.85;3.28;;;;;;;2.80;42.64;101459.78;5041167;28;20049;-56
2021/03/30 01:18:17;;;;;;;6.60;3.08;;;;;;;2.74;43.15;101462.97;5044696;28;20025;-57
2021/03/30 01:21:16;;;;;;;11.32;3.55;;;;;;;2.73;42.79;101462.06;5044450;28;20025;-56
2021/03/30 01:23:48;;;;;;;6.70;3.42;;;;;;;2.83;43.13;101460.75;5028101;28;20038;-56
2021/03/30 01:26:26;;;;;;;7.80;3.33;;;;;;;2.33;43.01;101388.88;5043163;28;20056;-56
2021/03/30 01:29:14;;;;;;;8.35;3.53;;;;;;;2.58;43.22;101448.69;5028234;28;20070;-57
2021/03/30 01:31:43;;;;;;;6.90;3.47;;;;;;;2.62;43.23;101442.00;5027364;28;20342;-57
2021/03/30 01:34:11;;;;;;;6.45;2.75;;;;;;;2.67;43.45;101461.84;5032430;28;20057;-58
2021/03/30 01:36:44;;;;;;;8.60;3.17;;;;;;;2.28;43.16;101379.28;5044071;28;20337;-57
2021/03/30 01:39:14;;;;;;;12.68;3.72;;;;;;;2.38;42.95;101386.50;5043250;28;20053;-59
2021/03/30 01:41:44;;;;;;;8.93;3.17;;;;;;;2.78;43.36;101464.81;5043847;28;20049;-57
2021/03/30 01:44:13;;;;;;;4.97;2.75;;;;;;;2.86;43.81;101457.44;5036112;28;20029;-56
2021/03/30 01:46:42;;;;;;;7.18;3.40;;;;;;;2.81;43.79;101443.59;5035743;28;20053;-56
2021/03/30 01:49:10;;;;;;;10.32;3.63;;;;;;;2.88;43.35;101446.47;5029344;28;20340;-56
2021/03/30 01:51:37;;;;;;;8.88;3.67;;;;;;;2.78;44.25;101438.34;5041336;28;20025;-56
2021/03/30 01:54:05;;;;;;;7.03;3.75;;;;;;;2.78;44.60;101451.13;5025584;28;20123;-56
2021/03/30 01:56:32;;;;;;;7.47;3.78;;;;;;;2.66;43.54;101459.22;5024175;28;20022;-55
2021/03/30 01:59:00;;;;;;;8.07;3.72;;;;;;;2.42;43.63;101396.03;5027601;28;20178;-56
2021/03/30 02:01:27;;;;;;;9.52;3.80;;;;;;;2.81;44.39;101444.47;5043780;28;20026;-57
2021/03/30 02:03:53;;;;;;;6.10;3.85;;;;;;;2.81;44.06;101448.69;5026331;28;20034;-56
2021/03/30 02:06:20;;;;;;;7.90;4.00;;;;;;;2.74;44.55;101452.72;5029869;28;20262;-56
2021/03/30 02:08:46;;;;;;;8.98;4.03;;;;;;;2.75;43.88;101441.66;5024370;28;20034;-56
2021/03/30 02:11:22;;;;;;;8.85;4.00;;;;;;;2.76;45.04;101444.31;5029416;28;20029;-56
2021/03/30 02:13:58;;;;;;;8.63;3.75;;;;;;;2.75;45.04;101444.22;5035605;28;20084;-57
2021/03/30 02:16:29;;;;;;;6.95;3.28;;;;;;;2.67;45.20;101437.94;5043669;28;20325;-56
2021/03/30 02:19:10;;;;;;;9.23;3.38;;;;;;;2.70;44.90;101438.06;5043126;28;20042;-57
2021/03/30 02:21:48;;;;;;;7.03;3.40;;;;;;;2.57;45.20;101464.84;5042825;28;20025;-56
2021/03/30 02:24:17;;;;;;;7.95;4.00;;;;;;;2.48;45.71;101439.78;5043192;28;20290;-56
2021/03/30 02:26:46;;;;;;;7.25;3.65;;;;;;;2.17;45.40;101378.88;5034977;28;20033;-56
2021/03/30 02:29:17;;;;;;;10.20;4.13;;;;;;;2.57;45.50;101429.91;5030956;28;20056;-56
2021/03/30 02:31:44;;;;;;;9.15;3.85;;;;;;;2.68;45.08;101444.78;5026966;28;20360;-57
2021/03/30 02:34:13;;;;;;;7.30;3.50;;;;;;;2.32;46.35;101376.06;5030553;28;20342;-56
2021/03/30 02:36:41;;;;;;;5.90;3.05;;;;;;;2.14;46.10;101387.28;5023809;28;20021;-56
2021/03/30 02:39:12;;;;;;;7.65;3.85;;;;;;;2.57;46.36;101441.81;5023520;28;20036;-56
2021/03/30 02:41:40;;;;;;;11.73;3.50;;;;;;;2.13;45.95;101372.75;5024029;28;20018;-56
2021/03/30 02:44:08;;;;;;;6.45;3.50;;;;;;;2.17;45.83;101376.31;5029066;28;20048;-56
2021/03/30 02:46:39;;;;;;;6.95;3.75;;;;;;;2.44;46.31;101445.56;5035031;28;20037;-56
2021/03/30 02:49:06;;;;;;;9.33;3.97;;;;;;;2.44;46.23;101435.34;5020807;28;20021;-56
2021/03/30 02:51:34;;;;;;;7.28;3.65;;;;;;;2.48;46.55;101432.09;5043071;28;20199;-55
2021/03/30 02:54:03;;;;;;;7.32;3.95;;;;;;;2.52;46.33;101435.66;5031758;28;20029;-55
2021/03/30 02:56:31;;;;;;;9.13;4.55;;;;;;;2.44;46.47;101412.34;5027717;28;20148;-55
2021/03/30 02:58:57;;;;;;;10.80;4.22;;;;;;;2.67;46.78;101431.13;5026476;28;20026;-56
2021/03/30 03:01:26;;;;;;;8.68;4.03;;;;;;;2.62;46.99;101434.31;5042528;28;20198;-56
2021/03/30 03:03:52;;;;;;;7.80;4.13;;;;;;;2.57;46.92;101429.91;5039978;28;20088;-56
2021/03/30 03:06:20;;;;;;;7.78;3.85;;;;;;;2.48;46.83;101409.09;5031223;28;20058;-57
2021/03/30 03:08:47;;;;;;;8.07;4.00;;;;;;;2.22;46.87;101355.25;5041088;28;20314;-56
2021/03/30 03:11:16;;;;;;;8.73;3.90;;;;;;;2.65;46.58;101419.09;5037682;28;20033;-57
2021/03/30 03:13:45;;;;;;;9.00;4.10;;;;;;;2.55;47.97;101417.84;5032402;28;20041;-57
2021/03/30 03:16:13;;;;;;;7.95;3.70;;;;;;;2.53;47.16;101412.69;5042672;28;20029;-55
2021/03/30 03:18:42;;;;;;;7.43;3.95;;;;;;;2.47;47.26;101401.38;5042411;28;20030;-56
2021/03/30 03:21:09;;;;;;;7.65;4.03;;;;;;;2.52;47.15;101405.84;5030350;28;20042;-56
2021/03/30 03:23:40;;;;;;;12.30;4.22;;;;;;;2.48;46.56;101403.97;5023299;28;20034;-56
2021/03/30 03:26:07;;;;;;;5.72;3.78;;;;;;;2.39;47.34;101404.50;5027606;28;20104;-56
2021/03/30 03:28:45;;;;;;;14.57;4.13;;;;;;;2.56;47.50;101404.28;5034210;28;20021;-56
2021/03/30 03:31:15;;;;;;;14.23;5.05;;;;;;;2.46;47.04;101397.91;5025138;28;20053;-55
2021/03/30 03:33:42;;;;;;;8.55;4.03;;;;;;;2.45;47.41;101400.41;5023494;28;20026;-56
2021/03/30 03:36:12;;;;;;;10.20;3.97;;;;;;;2.34;47.46;101387.22;5023346;28;20214;-56
2021/03/30 03:38:43;;;;;;;6.70;4.07;;;;;;;2.22;47.44;101327.13;5023369;28;20101;-57
2021/03/30 03:41:14;;;;;;;8.25;4.22;;;;;;;2.51;48.56;101386.19;5027714;28;20036;-57
2021/03/30 03:43:40;;;;;;;7.20;3.90;;;;;;;2.58;47.82;101400.97;5034394;28;20306;-57
2021/03/30 03:46:06;;;;;;;12.73;4.95;;;;;;;2.68;47.87;101407.31;5042487;28;20029;-57
2021/03/30 03:48:32;;;;;;;11.23;4.43;;;;;;;2.76;47.69;101397.38;5042316;28;20039;-56
2021/03/30 03:51:08;;;;;;;9.55;4.47;;;;;;;2.23;47.21;101336.53;5033347;28;20033;-56
2021/03/30 03:53:37;;;;;;;12.15;4.32;;;;;;;2.54;47.87;101411.88;5042312;28;20025;-57
2021/03/30 03:56:04;;;;;;;7.72;4.32;;;;;;;2.54;47.48;101393.13;5007318;28;20049;-56
2021/03/30 03:58:46;;;;;;;12.95;5.10;;;;;;;2.49;47.83;101386.94;5003002;28;20226;-56
2021/03/30 04:01:20;;;;;;;8.48;4.63;;;;;;;2.52;48.05;101417.75;5003256;28;20033;-56
2021/03/30 04:03:53;;;;;;;8.68;4.40;;;;;;;2.46;47.57;101391.94;5003151;28;20034;-56
2021/03/30 04:06:29;;;;;;;16.80;4.50;;;;;;;2.52;47.24;101400.72;5002867;28;20037;-56
2021/03/30 04:08:56;;;;;;;11.32;4.05;;;;;;;2.33;47.96;101373.56;5002774;28;20037;-57
2021/03/30 04:11:23;;;;;;;9.57;4.55;;;;;;;2.68;47.66;101397.09;5003040;28;20077;-57
2021/03/30 04:13:51;;;;;;;8.85;4.28;;;;;;;2.38;47.39;101320.94;5003003;28;20096;-56
2021/03/30 04:16:17;;;;;;;11.00;4.93;;;;;;;2.72;47.77;101393.84;5005759;28;20088;-56
2021/03/30 04:18:44;;;;;;;10.65;4.57;;;;;;;2.60;47.70;101411.25;5006444;28;20038;-56
2021/03/30 04:21:19;;;;;;;11.15;4.45;;;;;;;2.65;47.80;101407.19;5006571;28;20034;-57
2021/03/30 04:23:46;;;;;;;10.93;5.35;;;;;;;2.67;47.95;101408.13;5006531;28;20199;-58
2021/03/30 04:26:13;;;;;;;8.88;4.68;;;;;;;2.69;46.75;101386.00;5006499;28;20037;-59
2021/03/30 04:28:39;;;;;;;14.32;3.83;;;;;;;2.80;46.49;101396.66;5005992;28;20041;-59
2021/03/30 04:31:12;;;;;;;12.18;4.20;;;;;;;2.86;45.61;101383.25;5006445;28;20074;-57
2021/03/30 04:33:37;;;;;;;8.25;4.18;;;;;;;3.07;45.60;101390.84;5006135;28;20040;-55
2021/03/30 04:36:07;;;;;;;18.10;4.57;;;;;;;3.16;44.82;101388.63;5005790;28;20022;-56
2021/03/30 04:38:41;;;;;;;6.60;3.90;;;;;;;3.21;43.94;101383.69;5005982;28;20045;-57
2021/03/30 04:41:07;;;;;;;7.47;3.75;;;;;;;3.26;43.89;101388.16;4999276;28;20038;-58
2021/03/30 04:43:36;;;;;;;7.47;3.90;;;;;;;3.46;43.65;101380.28;5006284;28;20066;-57
2021/03/30 04:46:02;;;;;;;6.35;3.35;;;;;;;3.57;42.54;101399.47;4980895;28;20193;-57
2021/03/30 04:48:28;;;;;;;7.75;3.60;;;;;;;3.60;41.95;101391.03;5006026;28;20029;-57
2021/03/30 04:50:54;;;;;;;9.35;3.38;;;;;;;3.73;42.03;101393.19;5006233;28;20243;-55
2021/03/30 04:53:20;;;;;;;9.60;3.30;;;;;;;3.58;40.88;101373.03;5005742;28;20034;-57
2021/03/30 04:55:46;;;;;;;9.55;3.38;;;;;;;3.88;39.89;101386.84;5019244;28;20042;-58
2021/03/30 04:58:12;;;;;;;10.57;3.83;;;;;;;3.71;39.69;101392.25;5020507;28;20102;-57
2021/03/30 05:00:38;;;;;;;10.27;3.20;;;;;;;4.00;39.66;101394.94;5022402;28;20333;-57
2021/03/30 05:03:04;;;;;;;5.40;2.92;;;;;;;3.93;40.08;101387.88;5025268;28;20026;-57
2021/03/30 05:05:31;;;;;;;6.93;3.20;;;;;;;4.05;39.58;101383.16;5007771;28;20033;-58
2021/03/30 05:07:57;;;;;;;16.08;4.18;;;;;;;4.09;38.72;101391.78;5024086;28;20030;-57
2021/03/30 05:10:23;;;;;;;10.18;2.90;;;;;;;4.02;36.83;101398.44;5024072;28;20033;-56
2021/03/30 05:12:49;;;;;;;6.03;3.05;;;;;;;4.03;36.89;101384.78;5023612;28;20030;-58
2021/03/30 05:15:15;;;;;;;14.27;3.15;;;;;;;4.10;38.40;101378.16;5024071;28;20036;-57
2021/03/30 05:17:43;;;;;;;7.55;3.20;;;;;;;4.11;38.58;101372.22;5023636;28;20030;-57
2021/03/30 05:20:10;;;;;;;7.38;2.80;;;;;;;4.23;39.11;101382.88;5024214;28;20045;-57
2021/03/30 05:22:36;;;;;;;13.35;3.47;;;;;;;4.08;39.83;101364.44;5024722;28;20089;-58
2021/03/30 05:25:04;;;;;;;13.27;3.17;;;;;;;3.98;39.26;101345.31;5024491;28;20029;-57
2021/03/30 05:27:30;;;;;;;10.40;3.53;;;;;;;4.19;40.06;101354.50;5024125;28;20075;-58
2021/03/30 05:29:57;;;;;;;14.73;3.60;;;;;;;4.10;40.23;101352.53;5023570;28;20029;-57
2021/03/30 05:32:22;;;;;;;9.90;3.50;;;;;;;4.31;39.64;101355.75;5024350;28;20341;-56
2021/03/30 05:34:49;;;;;;;12.73;3.60;;;;;;;4.45;40.80;101348.50;5024526;28;20030;-56
2021/03/30 05:37:17;;;;;;;7.35;3.22;;;;;;;4.41;40.09;101344.09;5006754;28;20168;-57
2021/03/30 05:39:43;;;;;;;7.95;3.42;;;;;;;4.56;40.65;101343.72;5018287;28;20044;-57
2021/03/30 05:42:09;;;;;;;12.82;3.83;;;;;;;4.68;40.16;101344.91;5006406;28;20088;-58
2021/03/30 05:44:36;;;;;;;8.85;3.42;;;;;;;4.58;40.36;101348.88;5024500;28;20041;-57
2021/03/30 05:47:21;;;;;;;14.07;4.05;;;;;;;4.39;40.37;101280.75;5024511;28;20218;-58
2021/03/30 05:49:49;;;;;;;6.30;3.47;;;;;;;4.73;40.11;101333.94;5024304;28;20207;-58
2021/03/30 05:55:28;;;;;;;6.93;2.90;;;;;;;5.16;39.63;101352.28;5016539;28;20053;-58
2021/03/30 05:57:56;;;;;;;8.13;2.97;;;;;;;5.19;39.49;101348.06;5035622;28;20233;-59
2021/03/30 06:00:30;;;;;;;10.27;3.10;;;;;;;5.21;40.03;101280.50;5028141;28;20029;-58
2021/03/30 06:02:59;;;;;;;6.03;2.50;;;;;;;5.63;38.37;101344.06;5024674;28;20088;-57
2021/03/30 06:05:32;;;;;;;9.18;3.70;;;;;;;5.50;38.80;101325.78;5031145;28;20057;-57
2021/03/30 06:07:59;;;;;;;7.95;3.33;;;;;;;5.64;37.73;101330.41;5035318;28;20175;-57
2021/03/30 06:10:27;;;;;;;15.00;3.90;;;;;;;5.89;37.68;101334.47;5043534;28;20065;-58
2021/03/30 06:12:55;;;;;;;7.22;3.67;;;;;;;5.73;38.64;101333.22;5035005;28;20062;-59
2021/03/30 06:15:27;;;;;;;9.65;3.13;;;;;;;5.88;39.16;101332.72;5043342;28;20104;-58
2021/03/30 06:17:55;;;;;;;11.27;3.40;;;;;;;5.72;37.14;101271.50;5024668;28;20096;-57
2021/03/30 06:20:26;;;;;;;9.07;3.60;;;;;;;6.22;37.47;101329.28;5032032;28;20025;-57
2021/03/30 06:22:55;;;;;;;13.20;3.78;;;;;;;6.12;38.05;101305.91;5034459;28;20303;-57
2021/03/30 06:25:41;;;;;;;18.73;3.80;;;;;;;6.51;36.52;101317.91;5043312;28;20044;-57
2021/03/30 06:28:30;;;;;;;17.70;4.68;;;;;;;6.21;36.62;101250.38;5020864;28;20123;-57
2021/03/30 06:31:11;;;;;;;12.18;3.83;;;;;;;6.96;36.56;101311.97;5026290;28;20044;-57
2021/03/30 06:33:56;;;;;;;13.98;4.20;;;;;;;7.27;35.42;101304.84;5042641;28;20025;-58
2021/03/30 06:36:26;;;;;;;14.15;4.07;;;;;;;7.64;35.38;101304.59;5023646;28;20030;-57
2021/03/30 06:38:53;;;;;;;18.02;3.67;;;;;;;7.66;34.45;101313.25;5039391;28;20033;-57
2021/03/30 06:41:40;;;;;;;18.20;3.55;;;;;;;7.56;35.24;101270.97;5042937;28;20109;-57
2021/03/30 06:46:55;;;;;;;9.68;3.78;;;;;;;8.79;35.61;101315.78;5034852;28;20036;-57
2021/03/30 06:49:22;;;;;;;12.48;4.35;;;;;;;8.83;34.40;101311.53;5036651;28;20026;-56
2021/03/30 06:51:49;;;;;;;6.65;2.90;;;;;;;7.65;34.15;101309.78;5025853;28;20053;-57
2021/03/30 06:54:15;;;;;;;14.23;3.97;;;;;;;8.32;34.46;101301.34;5038366;28;20373;-57
2021/03/30 06:56:59;;;;;;;12.50;4.05;;;;;;;8.98;35.28;101301.38;5033068;28;20049;-57
2021/03/30 06:59:27;;;;;;;12.23;4.10;;;;;;;8.61;33.33;101306.09;5033763;28;20060;-56
2021/03/30 07:01:56;;;;;;;14.68;4.20;;;;;;;8.58;33.77;101301.75;5034033;28;20053;-57
2021/03/30 07:04:22;;;;;;;10.73;4.10;;;;;;;9.35;33.58;101303.47;5032252;28;20029;-56
2021/03/30 07:06:53;;;;;;;11.75;4.13;;;;;;;9.36;34.16;101302.63;5025172;28;20036;-59
2021/03/30 07:09:22;;;;;;;8.18;3.80;;;;;;;8.81;34.33;101307.22;5056009;28;20065;-57
2021/03/30 07:11:49;;;;;;;7.82;3.97;;;;;;;9.07;34.02;101300.63;5026878;28;20310;-57
2021/03/30 07:14:15;;;;;;;11.57;4.50;;;;;;;8.95;33.47;101297.03;5036872;28;20030;-58
2021/03/30 07:16:54;;;;;;;9.18;4.10;;;;;;;9.03;33.30;101310.03;5031310;28;20044;-57
2021/03/30 07:19:25;;;;;;;9.77;4.13;;;;;;;8.98;33.18;101253.16;5027814;28;20148;-57
2021/03/30 07:22:08;;;;;;;11.38;4.70;;;;;;;9.40;33.36;101291.47;5032912;28;20136;-57
2021/03/30 07:25:01;;;;;;;12.38;4.30;;;;;;;9.80;31.89;101286.63;5023354;28;20030;-57
2021/03/30 07:27:31;;;;;;;16.67;4.30;;;;;;;9.05;32.92;101289.38;5019180;28;20033;-57
2021/03/30 07:29:59;;;;;;;12.50;4.50;;;;;;;8.80;34.29;101300.28;5026457;28;20025;-57
2021/03/30 07:32:42;;;;;;;8.50;3.95;;;;;;;9.07;34.75;101279.94;5028041;28;20086;-57
2021/03/30 07:35:17;;;;;;;16.60;4.93;;;;;;;9.73;34.91;101271.91;5023395;28;20033;-57
2021/03/30 07:38:06;;;;;;;10.50;4.20;;;;;;;10.06;33.28;101275.59;5023282;28;20030;-57
2021/03/30 07:40:38;;;;;;;15.40;4.50;;;;;;;9.24;34.48;101272.38;5039090;28;20033;-56
2021/03/30 07:43:06;;;;;;;8.88;4.78;;;;;;;9.55;34.12;101259.69;5023842;28;20057;-58
2021/03/30 07:45:34;;;;;;;10.18;4.18;;;;;;;10.04;34.40;101265.22;5031189;28;20037;-59
2021/03/30 07:48:00;;;;;;;15.93;4.78;;;;;;;10.84;31.72;101254.41;5039006;28;20022;-59
2021/03/30 07:50:55;;;;;;;15.80;4.90;;;;;;;9.48;33.67;101196.72;5026383;28;20025;-59
2021/03/30 07:53:39;;;;;;;15.20;4.47;;;;;;;10.11;32.23;101212.66;5036210;28;20036;-59
2021/03/30 07:56:08;;;;;;;24.20;4.82;;;;;;;10.18;34.28;101255.81;5046392;28;20104;-58
2021/03/30 07:58:39;;;;;;;18.02;4.35;;;;;;;9.98;32.30;101203.09;5046294;28;20068;-58
2021/03/30 08:01:06;;;;;;;10.70;4.57;;;;;;;10.78;31.22;101255.25;5031674;28;20044;-58
2021/03/30 08:03:34;;;;;;;8.57;3.20;;;;;;;9.40;33.67;101199.22;5038358;28;20025;-58
2021/03/30 08:06:34;;;;;;;10.32;3.92;;;;;;;9.75;33.99;101247.78;5018886;28;20049;-58
2021/03/30 08:09:07;;;;;;;11.52;3.72;;;;;;;9.45;33.72;101251.88;5019633;28;20105;-58
2021/03/30 08:11:48;;;;;;;10.85;3.85;;;;;;;9.85;33.64;101239.25;5042634;28;20040;-57
2021/03/30 08:14:21;;;;;;;8.43;3.20;;;;;;;9.49;32.86;101250.16;5046008;28;20029;-58
2021/03/30 08:16:50;;;;;;;11.25;3.90;;;;;;;10.02;32.96;101235.91;5045523;28;20030;-58
2021/03/30 08:19:17;;;;;;;12.45;4.28;;;;;;;9.70;33.97;101251.19;5032102;28;20030;-57
2021/03/30 08:21:58;;;;;;;9.40;4.22;;;;;;;10.23;33.66;101239.44;5027491;28;20262;-58
2021/03/30 08:24:47;;;;;;;10.93;4.32;;;;;;;10.32;34.48;101244.69;5039185;28;20038;-57
2021/03/30 08:27:32;;;;;;;11.68;4.32;;;;;;;9.67;34.23;101237.38;5039657;28;20033;-58
2021/03/30 08:30:04;;;;;;;12.45;3.70;;;;;;;9.78;34.82;101234.88;5036472;28;20101;-59
2021/03/30 08:32:32;;;;;;;6.13;3.47;;;;;;;9.68;34.48;101249.47;5031740;28;20385;-58
2021/03/30 08:35:31;;;;;;;11.18;4.05;;;;;;;9.49;33.74;101237.22;5036859;28;20075;-58
2021/03/30 08:37:58;;;;;;;8.75;3.95;;;;;;;9.56;35.33;101241.59;5041749;28;20037;-58
2021/03/30 08:40:36;;;;;;;21.50;4.28;;;;;;;9.29;35.98;101237.06;5038793;28;20034;-58
2021/03/30 08:43:14;;;;;;;10.45;3.33;;;;;;;9.31;35.18;101236.22;5026479;28;20083;-58
2021/03/30 08:46:09;;;;;;;8.02;3.42;;;;;;;9.42;34.71;101233.75;5029106;28;20079;-57
2021/03/30 08:48:49;;;;;;;11.18;3.33;;;;;;;9.35;34.88;101234.56;5025917;28;20105;-57
2021/03/30 08:51:17;;;;;;;9.18;4.00;;;;;;;8.80;36.02;101225.38;5030608;28;20033;-58
2021/03/30 08:53:44;;;;;;;13.05;3.95;;;;;;;9.24;35.56;101218.06;5044814;28;20030;-58
2021/03/30 08:56:12;;;;;;;13.52;3.58;;;;;;;9.12;35.56;101196.44;5032040;28;20045;-57
2021/03/30 08:58:48;;;;;;;13.88;4.18;;;;;;;8.53;34.94;101152.78;5033715;28;20029;-57
2021/03/30 09:01:14;;;;;;;9.52;3.30;;;;;;;9.57;34.25;101195.94;5024980;28;20072;-58
2021/03/30 09:03:41;;;;;;;8.38;3.10;;;;;;;9.93;33.67;101194.44;5041591;28;20092;-58
2021/03/30 09:06:37;;;;;;;8.55;3.10;;;;;;;9.66;32.63;101146.81;5029832;28;20036;-59
2021/03/30 09:09:24;;;;;;;7.70;2.60;;;;;;;10.18;33.85;101193.69;5033035;28;20307;-59
2021/03/30 09:11:56;;;;;;;6.03;2.88;;;;;;;10.38;33.13;101182.59;5041329;28;20037;-58
2021/03/30 09:14:22;;;;;;;;;;;;;;;10.69;33.00;101188.72;5038699;28;20250;-58
2021/03/30 09:16:52;;;;;;;6.70;2.97;;;;;;;10.47;32.74;101185.19;5042937;28;19955;-57
2021/03/30 09:19:18;;;;;;;9.60;3.15;;;;;;;10.87;32.77;101184.44;5033380;28;20029;-58
2021/03/30 09:21:48;;;;;;;7.63;2.90;;;;;;;10.82;32.75;101134.34;5034268;28;20147;-59
2021/03/30 09:25:07;;;;;;;8.43;3.38;;;;;;;10.60;32.03;101182.66;5031289;28;20033;-59
2021/03/30 09:27:05;;;;;;;9.27;2.67;;;;;;;10.47;32.78;101185.19;5011574;28;20053;-56
2021/03/30 09:29:35;;;;;;;10.40;3.08;;;;;;;10.10;32.22;101138.41;5028990;28;20025;-58
2021/03/30 09:32:04;;;;;;;6.25;2.72;;;;;;;9.57;33.99;101133.84;5025295;28;20036;-56
2021/03/30 09:34:30;;;;;;;7.18;2.65;;;;;;;9.71;32.63;101173.59;5042912;28;20030;-56
2021/03/30 09:36:58;;;;;;;6.32;2.67;;;;;;;9.70;34.15;101132.19;5033410;28;20037;-57
2021/03/30 09:39:25;;;;;;;9.77;2.67;;;;;;;10.26;32.94;101177.31;5031680;28;20029;-57
2021/03/30 09:41:53;;;;;;;8.15;2.47;;;;;;;10.19;32.64;101177.31;5033919;28;20079;-57
2021/03/30 09:44:21;;;;;;;4.57;2.58;;;;;;;9.97;33.27;101173.75;5033050;28;20030;-57
2021/03/30 09:46:50;;;;;;;5.65;2.70;;;;;;;9.84;32.50;101146.06;5034631;28;20056;-57
2021/03/30 09:49:19;;;;;;;7.25;2.30;;;;;;;9.95;32.25;101159.09;5044220;28;20187;-56
2021/03/30 09:51:53;;;;;;;4.63;3.00;;;;;;;9.99;33.38;101158.22;5043621;28;20340;-57
2021/03/30 09:54:27;;;;;;;6.75;2.80;;;;;;;9.71;32.30;101142.56;5044044;28;20040;-57
2021/03/30 09:57:23;;;;;;;4.78;2.53;;;;;;;9.31;33.63;101140.56;5033297;28;20193;-58
2021/03/30 09:59:50;;;;;;;8.80;2.88;;;;;;;9.60;33.78;101146.81;5030282;28;20041;-57
2021/03/30 10:02:21;;;;;;;11.20;2.75;;;;;;;9.50;32.93;101092.44;5024068;28;20029;-57
2021/03/30 10:04:52;;;;;;;7.82;2.47;;;;;;;9.04;33.71;101097.28;5029680;28;20033;-57
2021/03/30 10:07:22;;;;;;;4.00;2.38;;;;;;;9.25;32.83;101137.06;5028986;28;20037;-57
2021/03/30 10:10:00;;;;;;;6.85;2.38;;;;;;;9.55;32.25;101120.03;5021063;28;20042;-57
2021/03/30 10:12:36;;;;;;;7.30;2.63;;;;;;;9.39;32.32;101117.38;5023453;28;20310;-58
2021/03/30 10:15:04;;;;;;;6.93;2.67;;;;;;;9.74;32.67;101126.19;5017037;28;20040;-57
2021/03/30 10:17:31;;;;;;;7.35;2.80;;;;;;;9.92;32.48;101126.28;5024401;28;20097;-57
2021/03/30 10:20:00;;;;;;;5.45;2.08;;;;;;;9.30;32.23;101105.22;5043356;28;20311;-57
2021/03/30 10:22:35;;;;;;;9.52;2.40;;;;;;;9.30;32.58;101104.38;5028780;28;20029;-58
2021/03/30 10:25:07;;;;;;;4.53;2.10;;;;;;;9.48;33.04;101112.25;5024979;28;20032;-57
2021/03/30 10:27:35;;;;;;;3.97;1.92;;;;;;;9.50;32.70;101086.41;5023730;28;20030;-57
2021/03/30 10:30:07;;;;;;;4.95;2.58;;;;;;;9.41;31.95;101094.09;5027252;28;20029;-57
2021/03/30 10:32:49;;;;;;;5.75;2.10;;;;;;;9.10;32.86;101053.41;5031357;28;20030;-57
2021/03/30 10:35:16;;;;;;;7.53;2.00;;;;;;;9.26;32.95;101092.28;5022272;28;20096;-57
2021/03/30 10:37:43;;;;;;;4.10;1.98;;;;;;;9.35;32.78;101083.72;5023789;28;20101;-59
2021/03/30 10:40:11;;;;;;;10.25;2.17;;;;;;;9.57;32.63;101097.66;5022728;28;20033;-57
2021/03/30 10:42:40;;;;;;;5.78;2.20;;;;;;;9.37;32.21;101072.53;5031052;28;20036;-57
2021/03/30 10:45:10;;;;;;;5.20;2.13;;;;;;;9.49;33.44;101082.06;5037174;28;20083;-58
2021/03/30 10:47:42;;;;;;;6.03;2.60;;;;;;;9.57;34.05;101082.13;5032406;28;20049;-58
2021/03/30 10:50:15;;;;;;;11.82;2.35;;;;;;;8.98;32.35;101020.59;5023149;28;20033;-57
2021/03/30 10:52:43;;;;;;;7.57;2.00;;;;;;;9.49;33.03;101069.13;5031780;28;20059;-57
2021/03/30 10:55:13;;;;;;;13.18;3.00;;;;;;;9.28;33.22;101069.91;5037060;28;20046;-58
2021/03/30 10:57:45;;;;;;;16.63;2.65;;;;;;;9.13;33.31;101012.06;5025093;28;20037;-57
2021/03/30 11:00:12;;;;;;;6.07;2.10;;;;;;;9.73;32.28;101057.19;5018286;28;20199;-57
2021/03/30 11:02:38;;;;;;;3.97;2.35;;;;;;;9.77;34.17;101040.81;5023607;28;20033;-58
2021/03/30 11:05:05;;;;;;;8.07;2.17;;;;;;;9.92;34.06;101055.53;5030913;28;20036;-57
2021/03/30 11:07:33;;;;;;;4.95;1.98;;;;;;;9.67;32.61;101050.28;5031261;28;20045;-58
2021/03/30 11:09:59;;;;;;;7.30;2.28;;;;;;;9.73;32.73;101044.25;5040576;28;20037;-57
2021/03/30 11:12:25;;;;;;;5.32;2.42;;;;;;;9.39;32.72;101044.97;5042422;28;20029;-57
2021/03/30 11:14:51;;;;;;;10.50;2.08;;;;;;;9.53;32.83;101039.00;5035798;28;20045;-58
2021/03/30 11:17:17;;;;;;;7.40;1.98;;;;;;;9.05;32.60;101030.97;5018226;28;20036;-58
2021/03/30 11:19:42;;;;;;;5.55;2.00;;;;;;;9.18;33.34;101037.06;5039054;28;20309;-58
2021/03/30 11:22:09;;;;;;;6.68;2.00;;;;;;;9.19;32.33;101020.72;5027542;28;20075;-58
2021/03/30 11:24:39;;;;;;;9.30;2.40;;;;;;;9.28;33.67;101028.53;5043975;28;20314;-57
2021/03/30 11:27:05;;;;;;;3.92;2.10;;;;;;;9.22;33.56;101002.63;5027508;28;20033;-57
2021/03/30 11:39:37;;;;;;;4.43;2.40;;;;;;;9.68;33.35;101003.72;5035304;28;20316;-57
2021/03/30 11:42:04;;;;;;;4.97;2.38;;;;;;;9.47;34.35;100983.81;5027182;28;20033;-57
2021/03/30 11:44:30;;;;;;;6.50;2.50;;;;;;;9.38;33.80;100994.13;5027504;28;20305;-57
2021/03/30 11:46:58;;;;;;;5.50;2.30;;;;;;;9.55;34.46;100977.78;5033334;28;20034;-57
2021/03/30 11:49:28;;;;;;;8.13;2.92;;;;;;;9.63;34.09;100986.44;5027251;28;20021;-58
2021/03/30 11:51:54;;;;;;;4.15;2.00;;;;;;;9.21;35.13;100993.19;5027153;28;20036;-56
2021/03/30 11:54:20;;;;;;;4.25;2.35;;;;;;;9.32;34.23;100989.78;5034665;28;20029;-57
2021/03/30 11:56:46;;;;;;;6.55;2.60;;;;;;;9.22;34.43;100984.53;5016727;28;20034;-57
2021/03/30 11:59:11;;;;;;;19.48;3.00;;;;;;;9.42;34.69;100969.13;5013703;28;20310;-57
2021/03/30 12:01:37;;;;;;;5.25;2.70;;;;;;;9.43;34.71;100971.72;5022938;28;20032;-59